Vesta, Minnesota
Current Conditions -  °F | °C
As of 10:53 AM on Sunday 23 Nov 2014 (Local Time) from KRWF Reporting Station
Light Rain Light Rain  
Wind Chill: 35°   Ceiling: 6000
Heat Index: 41°   Visibility: 10mi
Dew Point: 38°   Wind: 9mph
Humidity: 89%   Direction: 290°WNW
Pressure: 29.47"   Gusts: NA
Location:  44.51°N, 95.42°W
Report Text: KRWF 231653Z AUTO 29008KT 10SM -RA BKN060 OVC070 05/03 A2947 RMK AO2 SLP984 P0003 T00500033
Loading
Personal Weather Stations






























Interactive Weather Map New forecast layout! Learn more

10-Day Weather Forecast

Advertisements
Track Severe Weather on mobile